sensor_id;sensor_type;location;lat;lon;timestamp;P1;durP1;ratioP1;P2;durP2;ratioP2
10823;SDS011;39116;59.332;18.034;2023-12-22T00:02:16;1.60;;;0.80;;
10823;SDS011;39116;59.332;18.034;2023-12-22T00:04:38;1.60;;;0.70;;
10823;SDS011;39116;59.332;18.034;2023-12-22T00:07:00;1.33;;;0.60;;
10823;SDS011;39116;59.332;18.034;2023-12-22T00:09:22;1.50;;;0.55;;
10823;SDS011;39116;59.332;18.034;2023-12-22T00:11:42;0.70;;;0.70;;
10823;SDS011;39116;59.332;18.034;2023-12-22T00:14:04;1.00;;;0.70;;
10823;SDS011;39116;59.332;18.034;2023-12-22T00:16:27;1.98;;;0.75;;
10823;SDS011;39116;59.332;18.034;2023-12-22T00:18:49;2.03;;;0.63;;
10823;SDS011;39116;59.332;18.034;2023-12-22T00:21:12;2.25;;;0.73;;
10823;SDS011;39116;59.332;18.034;2023-12-22T00:23:33;1.35;;;0.70;;
10823;SDS011;39116;59.332;18.034;2023-12-22T00:25:56;1.75;;;0.65;;
10823;SDS011;39116;59.332;18.034;2023-12-22T00:28:17;0.90;;;0.70;;
10823;SDS011;39116;59.332;18.034;2023-12-22T00:30:39;2.00;;;0.80;;
10823;SDS011;39116;59.332;18.034;2023-12-22T00:33:02;1.23;;;0.80;;
10823;SDS011;39116;59.332;18.034;2023-12-22T00:35:24;2.92;;;0.90;;
10823;SDS011;39116;59.332;18.034;2023-12-22T00:37:46;1.90;;;0.60;;
10823;SDS011;39116;59.332;18.034;2023-12-22T00:40:08;0.97;;;0.60;;
10823;SDS011;39116;59.332;18.034;2023-12-22T00:42:30;0.80;;;0.47;;
10823;SDS011;39116;59.332;18.034;2023-12-22T00:44:51;1.63;;;0.67;;
10823;SDS011;39116;59.332;18.034;2023-12-22T00:47:13;1.30;;;0.80;;
10823;SDS011;39116;59.332;18.034;2023-12-22T00:49:36;1.30;;;0.90;;
10823;SDS011;39116;59.332;18.034;2023-12-22T00:51:58;1.00;;;0.70;;
10823;SDS011;39116;59.332;18.034;2023-12-22T00:54:20;0.80;;;0.70;;
10823;SDS011;39116;59.332;18.034;2023-12-22T00:56:42;0.60;;;0.60;;
10823;SDS011;39116;59.332;18.034;2023-12-22T00:59:03;2.33;;;0.70;;
10823;SDS011;39116;59.332;18.034;2023-12-22T01:01:25;1.37;;;1.00;;
10823;SDS011;39116;59.332;18.034;2023-12-22T01:03:47;1.27;;;0.70;;
10823;SDS011;39116;59.332;18.034;2023-12-22T01:06:10;0.90;;;0.80;;
10823;SDS011;39116;59.332;18.034;2023-12-22T01:08:31;3.03;;;0.93;;
10823;SDS011;39116;59.332;18.034;2023-12-22T01:10:53;1.77;;;1.10;;
10823;SDS011;39116;59.332;18.034;2023-12-22T01:13:15;1.33;;;0.60;;
10823;SDS011;39116;59.332;18.034;2023-12-22T01:15:37;1.20;;;0.70;;
10823;SDS011;39116;59.332;18.034;2023-12-22T01:17:58;1.30;;;0.73;;
10823;SDS011;39116;59.332;18.034;2023-12-22T01:20:20;2.30;;;1.00;;
10823;SDS011;39116;59.332;18.034;2023-12-22T01:22:43;5.40;;;0.82;;
10823;SDS011;39116;59.332;18.034;2023-12-22T01:25:05;2.00;;;1.05;;
10823;SDS011;39116;59.332;18.034;2023-12-22T01:27:27;1.58;;;0.60;;
10823;SDS011;39116;59.332;18.034;2023-12-22T01:29:48;1.20;;;0.70;;
10823;SDS011;39116;59.332;18.034;2023-12-22T01:32:10;0.85;;;0.75;;
10823;SDS011;39116;59.332;18.034;2023-12-22T01:34:32;1.37;;;0.70;;
10823;SDS011;39116;59.332;18.034;2023-12-22T01:36:54;1.67;;;0.80;;
10823;SDS011;39116;59.332;18.034;2023-12-22T01:39:17;2.93;;;1.07;;
10823;SDS011;39116;59.332;18.034;2023-12-22T01:41:39;1.70;;;0.90;;
10823;SDS011;39116;59.332;18.034;2023-12-22T01:44:00;1.50;;;0.80;;
10823;SDS011;39116;59.332;18.034;2023-12-22T01:46:22;2.30;;;0.90;;
10823;SDS011;39116;59.332;18.034;2023-12-22T01:48:44;1.70;;;0.83;;
10823;SDS011;39116;59.332;18.034;2023-12-22T01:51:06;2.30;;;0.93;;
10823;SDS011;39116;59.332;18.034;2023-12-22T01:53:28;1.35;;;0.95;;
10823;SDS011;39116;59.332;18.034;2023-12-22T01:55:52;3.05;;;1.00;;
10823;SDS011;39116;59.332;18.034;2023-12-22T01:58:15;1.20;;;0.80;;
10823;SDS011;39116;59.332;18.034;2023-12-22T02:00:38;1.48;;;0.80;;
10823;SDS011;39116;59.332;18.034;2023-12-22T02:02:59;2.17;;;1.00;;
10823;SDS011;39116;59.332;18.034;2023-12-22T02:05:21;1.73;;;0.88;;
10823;SDS011;39116;59.332;18.034;2023-12-22T02:07:45;2.73;;;0.90;;
10823;SDS011;39116;59.332;18.034;2023-12-22T02:10:07;1.35;;;0.80;;
10823;SDS011;39116;59.332;18.034;2023-12-22T02:12:30;1.63;;;0.70;;
10823;SDS011;39116;59.332;18.034;2023-12-22T02:14:52;1.70;;;0.60;;
10823;SDS011;39116;59.332;18.034;2023-12-22T02:17:15;1.45;;;0.70;;
10823;SDS011;39116;59.332;18.034;2023-12-22T02:19:43;1.65;;;0.60;;
10823;SDS011;39116;59.332;18.034;2023-12-22T02:22:05;1.33;;;0.70;;
10823;SDS011;39116;59.332;18.034;2023-12-22T02:24:28;1.03;;;0.60;;
10823;SDS011;39116;59.332;18.034;2023-12-22T02:26:51;1.07;;;0.63;;
10823;SDS011;39116;59.332;18.034;2023-12-22T02:29:14;1.98;;;0.77;;
10823;SDS011;39116;59.332;18.034;2023-12-22T02:31:37;1.13;;;0.82;;
10823;SDS011;39116;59.332;18.034;2023-12-22T02:34:03;2.42;;;0.80;;
10823;SDS011;39116;59.332;18.034;2023-12-22T02:36:26;1.05;;;0.70;;
10823;SDS011;39116;59.332;18.034;2023-12-22T02:38:49;2.60;;;0.95;;
10823;SDS011;39116;59.332;18.034;2023-12-22T02:41:14;3.63;;;0.90;;
10823;SDS011;39116;59.332;18.034;2023-12-22T02:43:36;1.45;;;0.80;;
10823;SDS011;39116;59.332;18.034;2023-12-22T02:45:59;2.60;;;1.00;;
10823;SDS011;39116;59.332;18.034;2023-12-22T02:48:20;2.17;;;0.68;;
10823;SDS011;39116;59.332;18.034;2023-12-22T02:50:42;1.20;;;0.90;;
10823;SDS011;39116;59.332;18.034;2023-12-22T02:53:04;6.53;;;0.90;;
10823;SDS011;39116;59.332;18.034;2023-12-22T02:55:25;0.95;;;0.55;;
10823;SDS011;39116;59.332;18.034;2023-12-22T02:57:48;1.00;;;0.90;;
10823;SDS011;39116;59.332;18.034;2023-12-22T03:00:11;1.07;;;0.87;;
10823;SDS011;39116;59.332;18.034;2023-12-22T03:02:33;2.13;;;0.70;;
10823;SDS011;39116;59.332;18.034;2023-12-22T03:04:54;1.53;;;0.90;;
10823;SDS011;39116;59.332;18.034;2023-12-22T03:07:16;2.33;;;0.70;;
10823;SDS011;39116;59.332;18.034;2023-12-22T03:09:38;0.93;;;0.50;;
10823;SDS011;39116;59.332;18.034;2023-12-22T03:12:00;1.67;;;0.80;;
10823;SDS011;39116;59.332;18.034;2023-12-22T03:14:23;1.42;;;0.70;;
10823;SDS011;39116;59.332;18.034;2023-12-22T03:16:45;1.98;;;0.98;;
10823;SDS011;39116;59.332;18.034;2023-12-22T03:19:07;2.37;;;0.83;;
10823;SDS011;39116;59.332;18.034;2023-12-22T03:21:29;0.95;;;0.70;;
10823;SDS011;39116;59.332;18.034;2023-12-22T03:23:50;2.78;;;0.75;;
10823;SDS011;39116;59.332;18.034;2023-12-22T03:26:12;2.17;;;0.63;;
10823;SDS011;39116;59.332;18.034;2023-12-22T03:28:34;2.28;;;0.80;;
10823;SDS011;39116;59.332;18.034;2023-12-22T03:30:57;1.92;;;0.80;;
10823;SDS011;39116;59.332;18.034;2023-12-22T03:33:18;1.70;;;0.73;;
10823;SDS011;39116;59.332;18.034;2023-12-22T03:35:40;0.70;;;0.70;;
10823;SDS011;39116;59.332;18.034;2023-12-22T03:38:01;0.93;;;0.63;;
10823;SDS011;39116;59.332;18.034;2023-12-22T03:40:23;1.90;;;0.60;;
10823;SDS011;39116;59.332;18.034;2023-12-22T03:42:45;1.58;;;0.68;;
10823;SDS011;39116;59.332;18.034;2023-12-22T03:45:07;0.88;;;0.65;;
10823;SDS011;39116;59.332;18.034;2023-12-22T03:47:30;1.38;;;0.77;;
10823;SDS011;39116;59.332;18.034;2023-12-22T03:49:52;1.73;;;0.60;;
10823;SDS011;39116;59.332;18.034;2023-12-22T03:52:14;1.38;;;0.68;;
10823;SDS011;39116;59.332;18.034;2023-12-22T03:54:35;1.27;;;0.67;;
10823;SDS011;39116;59.332;18.034;2023-12-22T03:56:57;1.42;;;0.60;;
10823;SDS011;39116;59.332;18.034;2023-12-22T03:59:19;2.05;;;0.80;;
10823;SDS011;39116;59.332;18.034;2023-12-22T04:01:41;0.98;;;0.73;;
10823;SDS011;39116;59.332;18.034;2023-12-22T04:04:05;1.63;;;0.70;;
10823;SDS011;39116;59.332;18.034;2023-12-22T04:06:26;0.87;;;0.60;;
10823;SDS011;39116;59.332;18.034;2023-12-22T04:08:49;0.60;;;0.50;;
10823;SDS011;39116;59.332;18.034;2023-12-22T04:11:10;0.85;;;0.60;;
10823;SDS011;39116;59.332;18.034;2023-12-22T04:13:32;2.00;;;0.70;;
10823;SDS011;39116;59.332;18.034;2023-12-22T04:15:54;0.93;;;0.63;;
10823;SDS011;39116;59.332;18.034;2023-12-22T04:18:16;1.40;;;0.73;;
10823;SDS011;39116;59.332;18.034;2023-12-22T04:20:39;2.00;;;0.68;;
10823;SDS011;39116;59.332;18.034;2023-12-22T04:23:01;0.82;;;0.52;;
10823;SDS011;39116;59.332;18.034;2023-12-22T04:25:22;0.50;;;0.50;;
10823;SDS011;39116;59.332;18.034;2023-12-22T04:27:45;0.50;;;0.50;;
10823;SDS011;39116;59.332;18.034;2023-12-22T04:30:07;1.25;;;0.47;;
10823;SDS011;39116;59.332;18.034;2023-12-22T04:32:29;0.95;;;0.40;;
10823;SDS011;39116;59.332;18.034;2023-12-22T04:34:51;0.87;;;0.50;;
10823;SDS011;39116;59.332;18.034;2023-12-22T04:37:14;0.70;;;0.40;;
10823;SDS011;39116;59.332;18.034;2023-12-22T04:39:36;0.43;;;0.43;;
10823;SDS011;39116;59.332;18.034;2023-12-22T04:41:57;0.63;;;0.30;;
10823;SDS011;39116;59.332;18.034;2023-12-22T04:44:19;0.40;;;0.40;;
10823;SDS011;39116;59.332;18.034;2023-12-22T04:46:41;0.40;;;0.40;;
10823;SDS011;39116;59.332;18.034;2023-12-22T04:49:03;0.63;;;0.40;;
10823;SDS011;39116;59.332;18.034;2023-12-22T04:51:24;0.43;;;0.43;;
10823;SDS011;39116;59.332;18.034;2023-12-22T04:53:48;0.40;;;0.40;;
10823;SDS011;39116;59.332;18.034;2023-12-22T04:56:09;0.60;;;0.43;;
10823;SDS011;39116;59.332;18.034;2023-12-22T04:58:31;0.37;;;0.33;;
10823;SDS011;39116;59.332;18.034;2023-12-22T05:00:53;0.40;;;0.40;;
10823;SDS011;39116;59.332;18.034;2023-12-22T05:03:15;1.17;;;0.60;;
10823;SDS011;39116;59.332;18.034;2023-12-22T05:05:35;1.10;;;0.60;;
10823;SDS011;39116;59.332;18.034;2023-12-22T05:07:57;0.67;;;0.50;;
10823;SDS011;39116;59.332;18.034;2023-12-22T05:10:20;0.33;;;0.33;;
10823;SDS011;39116;59.332;18.034;2023-12-22T05:12:43;0.47;;;0.40;;
10823;SDS011;39116;59.332;18.034;2023-12-22T05:15:05;0.83;;;0.50;;
10823;SDS011;39116;59.332;18.034;2023-12-22T05:17:27;0.80;;;0.50;;
10823;SDS011;39116;59.332;18.034;2023-12-22T05:19:50;0.50;;;0.50;;
10823;SDS011;39116;59.332;18.034;2023-12-22T05:22:12;0.50;;;0.50;;
10823;SDS011;39116;59.332;18.034;2023-12-22T05:24:34;0.60;;;0.50;;
10823;SDS011;39116;59.332;18.034;2023-12-22T05:26:57;0.60;;;0.60;;
10823;SDS011;39116;59.332;18.034;2023-12-22T05:29:19;0.63;;;0.60;;
10823;SDS011;39116;59.332;18.034;2023-12-22T05:31:41;0.67;;;0.53;;
10823;SDS011;39116;59.332;18.034;2023-12-22T05:34:04;0.60;;;0.60;;
10823;SDS011;39116;59.332;18.034;2023-12-22T05:36:26;0.47;;;0.40;;
10823;SDS011;39116;59.332;18.034;2023-12-22T05:38:48;0.70;;;0.57;;
10823;SDS011;39116;59.332;18.034;2023-12-22T05:41:09;0.77;;;0.60;;
10823;SDS011;39116;59.332;18.034;2023-12-22T05:43:33;1.13;;;0.90;;
10823;SDS011;39116;59.332;18.034;2023-12-22T05:45:54;0.50;;;0.50;;
10823;SDS011;39116;59.332;18.034;2023-12-22T05:48:16;0.80;;;0.70;;
10823;SDS011;39116;59.332;18.034;2023-12-22T05:50:42;2.60;;;1.00;;
10823;SDS011;39116;59.332;18.034;2023-12-22T05:53:04;0.80;;;0.70;;
10823;SDS011;39116;59.332;18.034;2023-12-22T05:55:26;0.80;;;0.70;;
10823;SDS011;39116;59.332;18.034;2023-12-22T05:57:49;0.80;;;0.63;;
10823;SDS011;39116;59.332;18.034;2023-12-22T06:00:13;1.03;;;0.83;;
10823;SDS011;39116;59.332;18.034;2023-12-22T06:02:35;1.27;;;0.80;;
10823;SDS011;39116;59.332;18.034;2023-12-22T06:04:57;0.90;;;0.80;;
10823;SDS011;39116;59.332;18.034;2023-12-22T06:07:19;2.67;;;1.00;;
10823;SDS011;39116;59.332;18.034;2023-12-22T06:09:41;1.20;;;0.70;;
10823;SDS011;39116;59.332;18.034;2023-12-22T06:12:04;1.27;;;0.93;;
10823;SDS011;39116;59.332;18.034;2023-12-22T06:14:26;1.70;;;1.00;;
10823;SDS011;39116;59.332;18.034;2023-12-22T06:16:49;0.87;;;0.77;;
10823;SDS011;39116;59.332;18.034;2023-12-22T06:19:13;1.47;;;1.30;;
10823;SDS011;39116;59.332;18.034;2023-12-22T06:21:37;1.77;;;1.17;;
10823;SDS011;39116;59.332;18.034;2023-12-22T06:23:58;1.63;;;1.10;;
10823;SDS011;39116;59.332;18.034;2023-12-22T06:26:20;1.77;;;1.13;;
10823;SDS011;39116;59.332;18.034;2023-12-22T06:28:42;1.50;;;1.10;;
10823;SDS011;39116;59.332;18.034;2023-12-22T06:31:04;1.63;;;1.03;;
10823;SDS011;39116;59.332;18.034;2023-12-22T06:33:28;1.70;;;1.20;;
10823;SDS011;39116;59.332;18.034;2023-12-22T06:35:49;1.70;;;1.10;;
10823;SDS011;39116;59.332;18.034;2023-12-22T06:38:13;2.57;;;1.43;;
10823;SDS011;39116;59.332;18.034;2023-12-22T06:40:35;2.17;;;1.20;;
10823;SDS011;39116;59.332;18.034;2023-12-22T06:42:57;2.00;;;1.23;;
10823;SDS011;39116;59.332;18.034;2023-12-22T06:45:18;3.13;;;1.53;;
10823;SDS011;39116;59.332;18.034;2023-12-22T06:47:40;1.30;;;1.10;;
10823;SDS011;39116;59.332;18.034;2023-12-22T06:50:04;1.90;;;1.48;;
10823;SDS011;39116;59.332;18.034;2023-12-22T06:52:26;2.20;;;1.40;;
10823;SDS011;39116;59.332;18.034;2023-12-22T06:54:47;2.87;;;1.87;;
10823;SDS011;39116;59.332;18.034;2023-12-22T06:57:09;3.53;;;1.57;;
10823;SDS011;39116;59.332;18.034;2023-12-22T06:59:31;1.80;;;1.30;;
10823;SDS011;39116;59.332;18.034;2023-12-22T07:01:53;1.75;;;1.30;;
10823;SDS011;39116;59.332;18.034;2023-12-22T07:04:15;1.90;;;1.23;;
10823;SDS011;39116;59.332;18.034;2023-12-22T07:06:39;2.33;;;1.30;;
10823;SDS011;39116;59.332;18.034;2023-12-22T07:11:42;2.03;;;1.27;;
10823;SDS011;39116;59.332;18.034;2023-12-22T07:14:03;1.90;;;1.33;;
10823;SDS011;39116;59.332;18.034;2023-12-22T07:16:25;1.40;;;1.13;;
10823;SDS011;39116;59.332;18.034;2023-12-22T07:18:47;1.90;;;1.33;;
10823;SDS011;39116;59.332;18.034;2023-12-22T07:21:09;2.20;;;1.20;;
10823;SDS011;39116;59.332;18.034;2023-12-22T07:23:38;1.30;;;1.07;;
10823;SDS011;39116;59.332;18.034;2023-12-22T07:26:00;4.50;;;1.50;;
10823;SDS011;39116;59.332;18.034;2023-12-22T07:28:22;1.97;;;1.20;;
10823;SDS011;39116;59.332;18.034;2023-12-22T07:30:44;2.70;;;1.33;;
10823;SDS011;39116;59.332;18.034;2023-12-22T07:33:05;2.13;;;1.50;;
10823;SDS011;39116;59.332;18.034;2023-12-22T07:35:27;1.27;;;1.10;;
10823;SDS011;39116;59.332;18.034;2023-12-22T07:37:49;1.70;;;1.20;;
10823;SDS011;39116;59.332;18.034;2023-12-22T07:40:12;1.67;;;1.23;;
10823;SDS011;39116;59.332;18.034;2023-12-22T07:42:34;2.20;;;1.40;;
10823;SDS011;39116;59.332;18.034;2023-12-22T07:44:56;2.10;;;1.50;;
10823;SDS011;39116;59.332;18.034;2023-12-22T07:47:18;2.63;;;1.53;;
10823;SDS011;39116;59.332;18.034;2023-12-22T07:49:40;3.93;;;1.83;;
10823;SDS011;39116;59.332;18.034;2023-12-22T07:52:02;2.10;;;1.70;;
10823;SDS011;39116;59.332;18.034;2023-12-22T07:54:23;2.53;;;1.40;;
10823;SDS011;39116;59.332;18.034;2023-12-22T07:59:10;3.60;;;1.40;;
10823;SDS011;39116;59.332;18.034;2023-12-22T08:01:32;2.30;;;1.50;;
10823;SDS011;39116;59.332;18.034;2023-12-22T08:03:53;3.13;;;1.60;;
10823;SDS011;39116;59.332;18.034;2023-12-22T08:06:15;2.00;;;1.37;;
10823;SDS011;39116;59.332;18.034;2023-12-22T08:08:37;3.10;;;1.80;;
10823;SDS011;39116;59.332;18.034;2023-12-22T08:10:59;2.70;;;1.80;;
10823;SDS011;39116;59.332;18.034;2023-12-22T08:13:21;3.13;;;1.90;;
10823;SDS011;39116;59.332;18.034;2023-12-22T08:15:44;2.17;;;1.70;;
10823;SDS011;39116;59.332;18.034;2023-12-22T08:18:06;2.93;;;1.60;;
10823;SDS011;39116;59.332;18.034;2023-12-22T08:20:28;2.50;;;1.80;;
10823;SDS011;39116;59.332;18.034;2023-12-22T08:22:49;3.37;;;1.77;;
10823;SDS011;39116;59.332;18.034;2023-12-22T08:25:12;4.30;;;2.10;;
10823;SDS011;39116;59.332;18.034;2023-12-22T08:27:34;5.23;;;2.43;;
10823;SDS011;39116;59.332;18.034;2023-12-22T08:29:56;4.70;;;2.33;;
10823;SDS011;39116;59.332;18.034;2023-12-22T08:32:19;2.47;;;2.00;;
10823;SDS011;39116;59.332;18.034;2023-12-22T08:34:41;4.70;;;1.93;;
10823;SDS011;39116;59.332;18.034;2023-12-22T08:37:02;3.00;;;2.20;;
10823;SDS011;39116;59.332;18.034;2023-12-22T08:39:24;2.60;;;2.00;;
10823;SDS011;39116;59.332;18.034;2023-12-22T08:41:46;3.17;;;2.00;;
10823;SDS011;39116;59.332;18.034;2023-12-22T08:44:08;3.10;;;2.20;;
10823;SDS011;39116;59.332;18.034;2023-12-22T08:46:30;3.80;;;2.17;;
10823;SDS011;39116;59.332;18.034;2023-12-22T08:48:53;3.30;;;2.13;;
10823;SDS011;39116;59.332;18.034;2023-12-22T08:51:15;5.13;;;2.20;;
10823;SDS011;39116;59.332;18.034;2023-12-22T08:53:37;3.67;;;2.40;;
10823;SDS011;39116;59.332;18.034;2023-12-22T08:55:58;3.50;;;2.30;;
10823;SDS011;39116;59.332;18.034;2023-12-22T08:58:20;3.07;;;2.10;;
10823;SDS011;39116;59.332;18.034;2023-12-22T09:00:42;2.90;;;2.20;;
10823;SDS011;39116;59.332;18.034;2023-12-22T09:03:04;3.73;;;2.30;;
10823;SDS011;39116;59.332;18.034;2023-12-22T09:05:27;4.00;;;2.17;;
10823;SDS011;39116;59.332;18.034;2023-12-22T09:07:49;3.93;;;2.30;;
10823;SDS011;39116;59.332;18.034;2023-12-22T09:10:10;2.93;;;2.13;;
10823;SDS011;39116;59.332;18.034;2023-12-22T09:12:33;3.83;;;2.27;;
10823;SDS011;39116;59.332;18.034;2023-12-22T09:14:54;3.10;;;2.23;;
10823;SDS011;39116;59.332;18.034;2023-12-22T09:17:16;5.30;;;2.73;;
10823;SDS011;39116;59.332;18.034;2023-12-22T09:19:37;2.97;;;2.37;;
10823;SDS011;39116;59.332;18.034;2023-12-22T09:22:01;3.27;;;2.37;;
10823;SDS011;39116;59.332;18.034;2023-12-22T09:24:23;4.10;;;2.40;;
10823;SDS011;39116;59.332;18.034;2023-12-22T09:26:45;3.57;;;2.00;;
10823;SDS011;39116;59.332;18.034;2023-12-22T09:29:06;6.27;;;2.57;;
10823;SDS011;39116;59.332;18.034;2023-12-22T09:31:28;3.40;;;2.22;;
10823;SDS011;39116;59.332;18.034;2023-12-22T09:33:50;2.75;;;2.10;;
10823;SDS011;39116;59.332;18.034;2023-12-22T09:36:11;3.85;;;2.60;;
10823;SDS011;39116;59.332;18.034;2023-12-22T09:38:34;3.73;;;2.60;;
10823;SDS011;39116;59.332;18.034;2023-12-22T09:40:56;3.60;;;2.30;;
10823;SDS011;39116;59.332;18.034;2023-12-22T09:43:19;3.93;;;2.30;;
10823;SDS011;39116;59.332;18.034;2023-12-22T09:45:41;2.93;;;2.17;;
10823;SDS011;39116;59.332;18.034;2023-12-22T09:48:03;4.90;;;2.10;;
10823;SDS011;39116;59.332;18.034;2023-12-22T09:50:27;7.03;;;3.03;;
10823;SDS011;39116;59.332;18.034;2023-12-22T09:52:48;4.43;;;2.63;;
10823;SDS011;39116;59.332;18.034;2023-12-22T09:55:12;4.10;;;2.60;;
10823;SDS011;39116;59.332;18.034;2023-12-22T09:57:34;3.70;;;2.40;;
10823;SDS011;39116;59.332;18.034;2023-12-22T09:59:56;3.57;;;2.30;;
10823;SDS011;39116;59.332;18.034;2023-12-22T10:02:18;5.20;;;2.80;;
10823;SDS011;39116;59.332;18.034;2023-12-22T10:04:41;3.77;;;2.10;;
10823;SDS011;39116;59.332;18.034;2023-12-22T10:07:02;4.00;;;2.47;;
10823;SDS011;39116;59.332;18.034;2023-12-22T10:09:25;4.23;;;2.70;;
10823;SDS011;39116;59.332;18.034;2023-12-22T10:11:48;4.33;;;2.60;;
10823;SDS011;39116;59.332;18.034;2023-12-22T10:14:11;5.27;;;2.50;;
10823;SDS011;39116;59.332;18.034;2023-12-22T10:16:34;3.47;;;2.43;;
10823;SDS011;39116;59.332;18.034;2023-12-22T10:18:56;3.87;;;2.70;;
10823;SDS011;39116;59.332;18.034;2023-12-22T10:21:19;4.00;;;2.80;;
10823;SDS011;39116;59.332;18.034;2023-12-22T10:23:42;5.00;;;2.97;;
10823;SDS011;39116;59.332;18.034;2023-12-22T10:26:03;4.27;;;2.73;;
10823;SDS011;39116;59.332;18.034;2023-12-22T10:28:28;5.27;;;3.30;;
10823;SDS011;39116;59.332;18.034;2023-12-22T10:30:50;4.22;;;3.17;;
10823;SDS011;39116;59.332;18.034;2023-12-22T10:33:11;5.10;;;3.10;;
10823;SDS011;39116;59.332;18.034;2023-12-22T10:35:33;5.37;;;3.10;;
10823;SDS011;39116;59.332;18.034;2023-12-22T10:37:55;5.35;;;3.20;;
10823;SDS011;39116;59.332;18.034;2023-12-22T10:40:17;8.27;;;3.70;;
10823;SDS011;39116;59.332;18.034;2023-12-22T10:42:39;8.27;;;3.53;;
10823;SDS011;39116;59.332;18.034;2023-12-22T10:45:03;4.93;;;3.30;;
10823;SDS011;39116;59.332;18.034;2023-12-22T10:47:25;5.18;;;3.80;;
10823;SDS011;39116;59.332;18.034;2023-12-22T10:49:46;6.33;;;3.20;;
10823;SDS011;39116;59.332;18.034;2023-12-22T10:52:11;5.67;;;3.97;;
10823;SDS011;39116;59.332;18.034;2023-12-22T10:54:37;4.47;;;3.50;;
10823;SDS011;39116;59.332;18.034;2023-12-22T10:56:58;6.68;;;3.50;;
10823;SDS011;39116;59.332;18.034;2023-12-22T10:59:22;5.43;;;3.60;;
10823;SDS011;39116;59.332;18.034;2023-12-22T11:01:45;6.63;;;3.60;;
10823;SDS011;39116;59.332;18.034;2023-12-22T11:04:11;4.77;;;3.20;;
10823;SDS011;39116;59.332;18.034;2023-12-22T11:06:37;7.27;;;4.13;;
10823;SDS011;39116;59.332;18.034;2023-12-22T11:08:59;9.27;;;4.17;;
10823;SDS011;39116;59.332;18.034;2023-12-22T11:11:26;6.03;;;3.80;;
10823;SDS011;39116;59.332;18.034;2023-12-22T11:13:49;5.73;;;3.80;;
10823;SDS011;39116;59.332;18.034;2023-12-22T11:16:11;6.27;;;3.73;;
10823;SDS011;39116;59.332;18.034;2023-12-22T11:18:35;8.47;;;4.60;;
10823;SDS011;39116;59.332;18.034;2023-12-22T11:20:57;6.85;;;3.63;;
10823;SDS011;39116;59.332;18.034;2023-12-22T11:23:20;8.10;;;4.57;;
10823;SDS011;39116;59.332;18.034;2023-12-22T11:25:41;7.78;;;4.35;;
10823;SDS011;39116;59.332;18.034;2023-12-22T11:28:04;7.17;;;3.90;;
10823;SDS011;39116;59.332;18.034;2023-12-22T11:30:27;7.77;;;5.00;;
10823;SDS011;39116;59.332;18.034;2023-12-22T11:32:50;7.37;;;4.50;;
10823;SDS011;39116;59.332;18.034;2023-12-22T11:35:16;7.30;;;4.10;;
10823;SDS011;39116;59.332;18.034;2023-12-22T11:37:38;9.47;;;3.70;;
10823;SDS011;39116;59.332;18.034;2023-12-22T11:40:00;8.07;;;3.80;;
10823;SDS011;39116;59.332;18.034;2023-12-22T11:42:23;6.07;;;3.80;;
10823;SDS011;39116;59.332;18.034;2023-12-22T11:44:45;7.37;;;4.40;;
10823;SDS011;39116;59.332;18.034;2023-12-22T11:47:08;6.67;;;4.30;;
10823;SDS011;39116;59.332;18.034;2023-12-22T11:49:31;8.97;;;4.83;;
10823;SDS011;39116;59.332;18.034;2023-12-22T11:51:54;7.27;;;4.30;;
10823;SDS011;39116;59.332;18.034;2023-12-22T11:56:59;8.40;;;4.40;;
10823;SDS011;39116;59.332;18.034;2023-12-22T11:59:21;10.73;;;4.53;;
10823;SDS011;39116;59.332;18.034;2023-12-22T12:01:43;7.67;;;4.87;;
10823;SDS011;39116;59.332;18.034;2023-12-22T12:04:04;6.07;;;4.07;;
10823;SDS011;39116;59.332;18.034;2023-12-22T12:06:35;7.93;;;4.87;;
10823;SDS011;39116;59.332;18.034;2023-12-22T12:09:00;7.60;;;3.97;;
10823;SDS011;39116;59.332;18.034;2023-12-22T12:11:21;9.63;;;4.83;;
10823;SDS011;39116;59.332;18.034;2023-12-22T12:13:44;8.47;;;5.23;;
10823;SDS011;39116;59.332;18.034;2023-12-22T12:16:06;7.60;;;3.80;;
10823;SDS011;39116;59.332;18.034;2023-12-22T12:18:28;6.33;;;3.97;;
10823;SDS011;39116;59.332;18.034;2023-12-22T12:20:50;7.33;;;4.03;;
10823;SDS011;39116;59.332;18.034;2023-12-22T12:23:12;9.60;;;4.40;;
10823;SDS011;39116;59.332;18.034;2023-12-22T12:25:35;6.97;;;4.27;;
10823;SDS011;39116;59.332;18.034;2023-12-22T12:28:03;6.10;;;3.70;;
10823;SDS011;39116;59.332;18.034;2023-12-22T12:30:26;5.63;;;3.72;;
10823;SDS011;39116;59.332;18.034;2023-12-22T12:32:47;6.40;;;4.10;;
10823;SDS011;39116;59.332;18.034;2023-12-22T12:35:10;8.10;;;5.23;;
10823;SDS011;39116;59.332;18.034;2023-12-22T12:37:31;7.70;;;3.87;;
10823;SDS011;39116;59.332;18.034;2023-12-22T12:39:53;7.83;;;4.17;;
10823;SDS011;39116;59.332;18.034;2023-12-22T12:42:21;6.73;;;3.93;;
10823;SDS011;39116;59.332;18.034;2023-12-22T12:44:44;7.88;;;4.10;;
10823;SDS011;39116;59.332;18.034;2023-12-22T12:47:12;8.50;;;4.23;;
10823;SDS011;39116;59.332;18.034;2023-12-22T12:49:33;6.45;;;4.03;;
10823;SDS011;39116;59.332;18.034;2023-12-22T12:51:56;7.97;;;4.60;;
10823;SDS011;39116;59.332;18.034;2023-12-22T12:54:18;8.97;;;5.03;;
10823;SDS011;39116;59.332;18.034;2023-12-22T12:56:40;7.50;;;3.83;;
10823;SDS011;39116;59.332;18.034;2023-12-22T12:59:03;6.43;;;4.00;;
10823;SDS011;39116;59.332;18.034;2023-12-22T13:01:28;6.30;;;3.60;;
10823;SDS011;39116;59.332;18.034;2023-12-22T13:03:52;6.30;;;3.70;;
10823;SDS011;39116;59.332;18.034;2023-12-22T13:06:14;7.70;;;3.80;;
10823;SDS011;39116;59.332;18.034;2023-12-22T13:08:36;7.13;;;3.90;;
10823;SDS011;39116;59.332;18.034;2023-12-22T13:11:00;7.83;;;3.77;;
10823;SDS011;39116;59.332;18.034;2023-12-22T13:13:22;8.30;;;4.17;;
10823;SDS011;39116;59.332;18.034;2023-12-22T13:15:45;6.83;;;3.50;;
10823;SDS011;39116;59.332;18.034;2023-12-22T13:18:07;5.30;;;3.90;;
10823;SDS011;39116;59.332;18.034;2023-12-22T13:20:29;6.13;;;3.40;;
10823;SDS011;39116;59.332;18.034;2023-12-22T13:22:51;4.73;;;2.83;;
10823;SDS011;39116;59.332;18.034;2023-12-22T13:25:13;5.77;;;3.13;;
10823;SDS011;39116;59.332;18.034;2023-12-22T13:27:43;7.10;;;3.73;;
10823;SDS011;39116;59.332;18.034;2023-12-22T13:30:05;5.77;;;3.20;;
10823;SDS011;39116;59.332;18.034;2023-12-22T13:32:29;5.03;;;3.30;;
10823;SDS011;39116;59.332;18.034;2023-12-22T13:34:51;4.63;;;2.80;;
10823;SDS011;39116;59.332;18.034;2023-12-22T13:37:13;5.93;;;3.17;;
10823;SDS011;39116;59.332;18.034;2023-12-22T13:39:35;6.87;;;3.10;;
10823;SDS011;39116;59.332;18.034;2023-12-22T13:41:56;6.50;;;3.80;;
10823;SDS011;39116;59.332;18.034;2023-12-22T13:44:18;5.43;;;3.50;;
10823;SDS011;39116;59.332;18.034;2023-12-22T13:46:40;5.23;;;3.20;;
10823;SDS011;39116;59.332;18.034;2023-12-22T13:49:04;5.77;;;3.33;;
10823;SDS011;39116;59.332;18.034;2023-12-22T13:51:25;5.60;;;3.23;;
10823;SDS011;39116;59.332;18.034;2023-12-22T13:53:47;5.03;;;3.30;;
10823;SDS011;39116;59.332;18.034;2023-12-22T13:56:09;5.40;;;3.23;;
10823;SDS011;39116;59.332;18.034;2023-12-22T13:58:33;4.70;;;3.50;;
10823;SDS011;39116;59.332;18.034;2023-12-22T14:01:04;5.13;;;3.30;;
10823;SDS011;39116;59.332;18.034;2023-12-22T14:03:33;5.97;;;3.60;;
10823;SDS011;39116;59.332;18.034;2023-12-22T14:05:57;6.33;;;4.10;;
10823;SDS011;39116;59.332;18.034;2023-12-22T14:08:19;5.53;;;4.20;;
10823;SDS011;39116;59.332;18.034;2023-12-22T14:10:44;5.80;;;3.33;;
10823;SDS011;39116;59.332;18.034;2023-12-22T14:13:06;6.83;;;3.63;;